Time;durP1;ratioP1;P1;durP2;ratioP2;P2;SDS_P1;SDS_P2;PMS_P1;PMS_P2;Temp;Humidity;BMP_temperature;BMP_pressure;BME280_temperature;BME280_humidity;BME280_pressure;Samples;Min_cycle;Max_cycle;Signal;HPM_P1;HPM_P2
2024/03/30 00:01:19;;;;;;;4.38;3.90;;;10.20;99.90;;;;;;12483615;28;20084;-78
2024/03/30 00:07:21;;;;;;;4.15;3.75;;;10.20;99.90;;;;;;12477113;28;20411;-77
2024/03/30 00:13:22;;;;;;;4.32;3.72;;;10.10;99.90;;;;;;12469222;28;20053;-77
2024/03/30 00:19:23;;;;;;;4.22;3.83;;;10.30;99.90;;;;;;12473334;28;20513;-79
2024/03/30 00:25:23;;;;;;;4.32;3.67;;;10.30;99.90;;;;;;12481599;28;20156;-78
2024/03/30 00:31:27;;;;;;;5.03;3.53;;;10.10;99.90;;;;;;12483649;28;20413;-77
2024/03/30 00:37:28;;;;;;;4.60;3.95;;;10.10;99.90;;;;;;12485084;28;20437;-82
2024/03/30 00:43:29;;;;;;;4.38;3.92;;;10.10;99.90;;;;;;12476009;28;20061;-78
2024/03/30 00:49:30;;;;;;;4.72;4.32;;;10.20;99.90;;;;;;12456739;28;20050;-80
2024/03/30 00:55:31;;;;;;;5.57;5.07;;;10.00;99.90;;;;;;12474169;28;20110;-83
2024/03/30 01:01:32;;;;;;;5.53;5.03;;;9.80;99.90;;;;;;12488393;28;20053;-82
2024/03/30 01:07:33;;;;;;;5.28;4.78;;;9.80;99.90;;;;;;12491198;28;20057;-80
2024/03/30 01:13:34;;;;;;;6.18;5.68;;;9.70;99.90;;;;;;12511346;28;20045;-81
2024/03/30 01:19:35;;;;;;;7.35;5.53;;;9.70;99.90;;;;;;12494281;28;20462;-80
2024/03/30 01:25:37;;;;;;;6.07;5.47;;;9.70;99.90;;;;;;12492963;28;20053;-80
2024/03/30 01:31:38;;;;;;;5.05;4.55;;;9.60;99.90;;;;;;12523524;28;20057;-81
2024/03/30 01:37:39;;;;;;;4.88;4.20;;;9.60;99.90;;;;;;12529282;28;20049;-80
2024/03/30 01:43:41;;;;;;;6.15;5.60;;;9.50;99.90;;;;;;12515775;28;20053;-80
2024/03/30 01:49:42;;;;;;;6.20;5.60;;;9.50;99.90;;;;;;12521925;28;20056;-81
2024/03/30 01:55:46;;;;;;;6.40;5.90;;;9.50;99.90;;;;;;12519252;28;20417;-80
2024/03/30 02:01:47;;;;;;;6.22;5.68;;;9.50;99.90;;;;;;12540461;28;20096;-80
2024/03/30 02:07:48;;;;;;;5.82;5.25;;;9.40;99.90;;;;;;12543051;28;20108;-80
2024/03/30 02:13:49;;;;;;;5.97;4.80;;;9.30;99.90;;;;;;12520704;28;20092;-80
2024/03/30 02:19:56;;;;;;;5.10;4.13;;;9.30;99.90;;;;;;12503852;28;20052;-78
2024/03/30 02:26:00;;;;;;;7.57;4.80;;;9.30;99.90;;;;;;12488696;28;20046;-82
2024/03/30 02:32:03;;;;;;;5.80;5.20;;;9.30;99.90;;;;;;12461563;28;20107;-82
2024/03/30 02:38:04;;;;;;;8.88;5.85;;;9.30;99.90;;;;;;12483162;28;20064;-81
2024/03/30 02:44:05;;;;;;;8.35;6.18;;;9.30;99.90;;;;;;12510895;28;20045;-80
2024/03/30 02:50:06;;;;;;;8.27;6.03;;;9.30;99.90;;;;;;12507748;28;20057;-80
2024/03/30 02:56:07;;;;;;;7.18;5.47;;;9.30;99.90;;;;;;12494427;28;20053;-80
2024/03/30 03:02:08;;;;;;;8.75;5.80;;;9.20;99.90;;;;;;12475949;28;20057;-79
2024/03/30 03:08:09;;;;;;;8.98;5.50;;;9.20;99.90;;;;;;12499150;28;20050;-80
2024/03/30 03:14:10;;;;;;;5.82;5.22;;;9.20;99.90;;;;;;12493912;28;20069;-80
2024/03/30 03:20:12;;;;;;;8.73;5.10;;;9.30;99.90;;;;;;12503377;28;20053;-81
2024/03/30 03:26:13;;;;;;;6.70;5.45;;;9.40;99.90;;;;;;12453924;28;20107;-80
2024/03/30 03:32:14;;;;;;;8.75;5.30;;;9.50;99.90;;;;;;12450590;28;20107;-80
2024/03/30 03:38:15;;;;;;;5.97;5.35;;;9.50;99.90;;;;;;12482970;28;20100;-80
2024/03/30 03:44:16;;;;;;;6.00;5.40;;;9.50;99.90;;;;;;12508215;28;20056;-80
2024/03/30 03:50:17;;;;;;;5.80;5.03;;;9.50;99.90;;;;;;12482390;28;20183;-81
2024/03/30 03:56:17;;;;;;;7.05;5.38;;;9.40;99.90;;;;;;12502170;28;20096;-80
2024/03/30 04:02:18;;;;;;;5.72;5.13;;;9.30;99.90;;;;;;12498000;28;20065;-82
2024/03/30 04:08:19;;;;;;;5.55;5.00;;;9.20;99.90;;;;;;12496530;28;20057;-81
2024/03/30 04:14:20;;;;;;;5.47;4.78;;;9.20;99.90;;;;;;12493553;28;20053;-81
2024/03/30 04:20:21;;;;;;;6.32;5.18;;;9.20;99.90;;;;;;12501803;28;20049;-81
2024/03/30 04:26:22;;;;;;;6.53;5.70;;;9.10;99.90;;;;;;12500635;28;20049;-81
2024/03/30 04:32:23;;;;;;;6.25;5.75;;;9.00;99.90;;;;;;12492852;28;20050;-81
2024/03/30 04:38:25;;;;;;;8.63;5.40;;;8.90;99.90;;;;;;12479817;28;20053;-79
2024/03/30 04:44:26;;;;;;;5.93;5.30;;;8.90;99.90;;;;;;12490643;28;20049;-82
2024/03/30 04:50:27;;;;;;;6.35;5.60;;;8.80;99.90;;;;;;12483633;28;20108;-79
2024/03/30 04:56:28;;;;;;;7.07;5.22;;;8.80;99.90;;;;;;12492651;28;20539;-78
2024/03/30 05:02:29;;;;;;;7.55;6.72;;;8.80;99.90;;;;;;12463960;28;20105;-79
2024/03/30 05:08:30;;;;;;;6.32;5.72;;;8.70;99.90;;;;;;12517352;28;20072;-78
2024/03/30 05:14:31;;;;;;;7.60;6.13;;;8.70;99.90;;;;;;12504948;28;20046;-78
2024/03/30 05:27:04;;;;;;;6.85;6.25;;;8.70;99.90;;;;;;12484968;28;20053;-78
2024/03/30 05:33:05;;;;;;;6.75;6.05;;;8.60;99.90;;;;;;12493552;28;20052;-82
2024/03/30 05:39:06;;;;;;;6.05;5.55;;;8.70;99.90;;;;;;12476885;28;20046;-77
2024/03/30 05:45:07;;;;;;;6.50;5.90;;;8.70;99.90;;;;;;12480445;28;20071;-83
2024/03/30 05:51:08;;;;;;;6.50;5.90;;;8.70;99.90;;;;;;12476795;28;20060;-83
2024/03/30 05:57:10;;;;;;;5.97;5.47;;;8.70;99.90;;;;;;12484579;28;20113;-80
2024/03/30 06:03:11;;;;;;;7.78;6.63;;;8.80;99.90;;;;;;12510759;28;20514;-81
2024/03/30 06:09:12;;;;;;;7.10;6.40;;;9.00;99.90;;;;;;12497064;28;20054;-81
2024/03/30 06:15:12;;;;;;;6.63;6.03;;;9.00;99.90;;;;;;12502303;28;20053;-80
2024/03/30 06:21:15;;;;;;;5.45;4.95;;;9.30;99.90;;;;;;12512456;28;20053;-81
2024/03/30 06:27:16;;;;;;;4.53;3.15;;;9.40;99.90;;;;;;12534644;28;20053;-83
2024/03/30 06:33:17;;;;;;;3.83;2.90;;;9.90;99.90;;;;;;12521731;28;20045;-80
2024/03/30 06:39:18;;;;;;;5.60;3.45;;;11.00;99.90;;;;;;12509861;28;20053;-80
2024/03/30 06:45:19;;;;;;;7.93;3.97;;;11.50;99.90;;;;;;12519575;28;20048;-80
2024/03/30 06:51:20;;;;;;;4.35;3.95;;;11.90;99.90;;;;;;12524337;28;20042;-80
2024/03/30 06:57:21;;;;;;;8.18;5.10;;;12.10;99.90;;;;;;12513897;28;20053;-79
2024/03/30 07:03:22;;;;;;;8.52;4.93;;;12.30;99.90;;;;;;12502943;28;20067;-79
2024/03/30 07:09:23;;;;;;;9.57;4.80;;;12.40;99.90;;;;;;12504758;28;20061;-80
2024/03/30 07:15:24;;;;;;;7.65;5.45;;;12.50;99.90;;;;;;12489351;28;20045;-79
2024/03/30 07:21:25;;;;;;;6.18;5.05;;;12.50;99.90;;;;;;12528036;28;20049;-79
2024/03/30 07:27:26;;;;;;;9.98;5.50;;;12.50;99.90;;;;;;12511311;28;20091;-80
2024/03/30 07:33:27;;;;;;;8.55;5.30;;;12.90;99.90;;;;;;12510293;28;20154;-79
2024/03/30 07:39:28;;;;;;;9.98;6.10;;;13.10;99.90;;;;;;12538120;23;20044;-36
2024/03/30 07:45:29;;;;;;;15.95;6.45;;;13.20;99.90;;;;;;12615268;28;20048;-36
2024/03/30 07:51:30;;;;;;;9.30;5.38;;;13.30;99.90;;;;;;12602906;28;20503;-36
2024/03/30 07:57:30;;;;;;;18.50;6.07;;;13.20;99.90;;;;;;12609925;28;20051;-38
2024/03/30 08:03:31;;;;;;;10.98;4.95;;;13.30;99.90;;;;;;12616482;28;20056;-36
2024/03/30 08:09:32;;;;;;;10.45;5.53;;;13.60;99.90;;;;;;12617199;28;20044;-36
2024/03/30 08:15:39;;;;;;;7.93;5.50;;;13.70;99.90;;;;;;12598438;28;20048;-36
2024/03/30 08:21:40;;;;;;;12.95;6.72;;;13.90;99.90;;;;;;12611136;28;20051;-36
2024/03/30 08:27:41;;;;;;;16.67;6.97;;;14.00;99.90;;;;;;12605500;28;20048;-36
2024/03/30 08:33:42;;;;;;;10.40;6.05;;;14.00;99.90;;;;;;12599198;28;20051;-36
2024/03/30 08:39:43;;;;;;;12.20;6.45;;;14.10;99.90;;;;;;12620313;28;20056;-36
2024/03/30 08:45:44;;;;;;;13.52;6.47;;;14.20;99.90;;;;;;12629495;28;20048;-36
2024/03/30 08:51:45;;;;;;;16.60;5.85;;;14.30;99.90;;;;;;12617553;28;20047;-36
2024/03/30 08:57:46;;;;;;;11.05;6.72;;;14.10;99.90;;;;;;12627307;28;20161;-36
2024/03/30 09:03:47;;;;;;;8.80;4.97;;;14.10;99.90;;;;;;12623185;28;20048;-36
2024/03/30 09:09:47;;;;;;;8.98;5.65;;;14.10;99.90;;;;;;12618500;28;20044;-36
2024/03/30 09:15:48;;;;;;;11.63;4.85;;;14.00;99.90;;;;;;12622231;28;20080;-36
2024/03/30 09:21:49;;;;;;;9.88;5.85;;;13.90;99.90;;;;;;12623599;28;20063;-36
2024/03/30 09:27:50;;;;;;;10.07;5.80;;;13.90;99.90;;;;;;12618001;28;20474;-36
2024/03/30 09:33:51;;;;;;;7.15;5.20;;;14.00;99.90;;;;;;12621209;28;20079;-36
2024/03/30 09:39:52;;;;;;;18.42;6.10;;;14.30;99.90;;;;;;12624730;28;20110;-36
2024/03/30 09:45:53;;;;;;;15.85;5.88;;;14.40;99.90;;;;;;12615913;28;20133;-36
2024/03/30 09:51:55;;;;;;;13.20;5.38;;;14.50;99.90;;;;;;12614588;28;20040;-36
2024/03/30 09:57:57;;;;;;;22.80;5.88;;;14.30;99.90;;;;;;12632687;28;20047;-36
2024/03/30 10:03:58;;;;;;;14.00;5.25;;;14.50;99.90;;;;;;12614301;28;20056;-36
2024/03/30 10:10:14;;;;;;;16.50;5.53;;;14.60;99.90;;;;;;12600559;28;20491;-36
2024/03/30 10:16:17;;;;;;;15.27;5.88;;;14.70;99.90;;;;;;12617275;28;20052;-36
2024/03/30 10:22:18;;;;;;;13.67;6.50;;;14.60;99.90;;;;;;12618447;28;20078;-36
2024/03/30 10:28:21;;;;;;;13.27;5.40;;;14.60;99.90;;;;;;12616141;28;20052;-36
2024/03/30 10:34:22;;;;;;;16.35;5.60;;;14.50;99.90;;;;;;12607131;28;20048;-36
2024/03/30 10:40:24;;;;;;;11.48;5.50;;;14.60;99.90;;;;;;12618985;28;20078;-36
2024/03/30 10:46:27;;;;;;;18.85;5.85;;;14.90;99.90;;;;;;12622407;28;20082;-36
2024/03/30 10:52:28;;;;;;;14.18;5.35;;;15.30;99.90;;;;;;12613238;28;20058;-36
2024/03/30 10:58:31;;;;;;;22.48;5.82;;;15.60;99.90;;;;;;12612030;28;20052;-36
2024/03/30 11:04:32;;;;;;;20.90;5.97;;;15.70;99.90;;;;;;12613107;28;20052;-36
2024/03/30 11:10:33;;;;;;;18.60;5.70;;;15.60;99.90;;;;;;12615245;28;20048;-36
2024/03/30 11:16:43;;;;;;;21.73;5.30;;;15.70;99.90;;;;;;12610362;28;20055;-37
2024/03/30 11:22:49;;;;;;;19.77;6.07;;;15.80;99.90;;;;;;12609865;28;20051;-36
2024/03/30 11:28:59;;;;;;;20.77;5.55;;;16.30;99.90;;;;;;12613047;28;20074;-36
2024/03/30 11:35:25;;;;;;;22.70;5.90;;;16.40;99.90;;;;;;12615622;28;20056;-36
2024/03/30 11:41:26;;;;;;;24.35;5.72;;;16.50;99.90;;;;;;12626303;28;20059;-36
2024/03/30 11:47:27;;;;;;;30.58;6.50;;;16.60;99.90;;;;;;12604014;28;20052;-36
2024/03/30 11:53:33;;;;;;;23.58;7.68;;;16.60;99.90;;;;;;12616532;28;20047;-36
2024/03/30 11:59:36;;;;;;;24.92;6.32;;;16.60;99.90;;;;;;12595739;28;20044;-36
2024/03/30 12:05:40;;;;;;;26.05;6.05;;;16.90;99.90;;;;;;12596639;28;20997;-37
2024/03/30 12:11:41;;;;;;;;;;;17.20;99.90;;;;;;12609225;28;20056;-36
2024/03/30 12:17:42;;;;;;;27.30;6.53;;;17.40;99.90;;;;;;12612273;28;19971;-37
2024/03/30 12:23:44;;;;;;;18.13;5.50;;;17.40;99.90;;;;;;12600945;28;20067;-37
2024/03/30 12:29:45;;;;;;;22.05;6.25;;;17.30;99.90;;;;;;12607076;28;20044;-36
2024/03/30 12:35:46;;;;;;;15.93;5.72;;;17.20;99.90;;;;;;12615106;28;20077;-36
2024/03/30 12:41:47;;;;;;;15.23;6.50;;;17.00;99.90;;;;;;12608007;28;20508;-36
2024/03/30 12:47:48;;;;;;;26.02;6.45;;;16.80;99.90;;;;;;12615223;28;20044;-36
2024/03/30 12:53:50;;;;;;;23.00;5.97;;;16.70;99.90;;;;;;12604089;28;20127;-36
2024/03/30 12:59:58;;;;;;;24.20;5.32;;;16.80;99.90;;;;;;12628850;28;20056;-36
2024/03/30 13:05:58;;;;;;;20.75;6.00;;;16.80;99.90;;;;;;12608207;28;20056;-36
2024/03/30 13:12:01;;;;;;;28.80;5.10;;;16.90;99.90;;;;;;12607258;28;20094;-36
2024/03/30 13:18:07;;;;;;;23.65;5.00;;;16.90;99.90;;;;;;12540841;28;20048;-36
2024/03/30 13:24:08;;;;;;;22.25;4.57;;;16.80;99.90;;;;;;12612001;28;20052;-36
2024/03/30 13:30:10;;;;;;;28.38;5.00;;;16.80;99.90;;;;;;12617085;28;20048;-36
2024/03/30 13:36:11;;;;;;;19.70;5.18;;;16.70;99.90;;;;;;12610886;28;20052;-36
2024/03/30 13:42:12;;;;;;;25.27;5.78;;;16.60;99.90;;;;;;12620553;28;20132;-36
2024/03/30 13:48:13;;;;;;;19.83;6.45;;;16.40;99.90;;;;;;12613295;28;20109;-36
2024/03/30 13:54:13;;;;;;;29.70;4.90;;;16.30;99.90;;;;;;12615039;28;20117;-36
2024/03/30 14:00:15;;;;;;;15.93;4.65;;;16.20;99.90;;;;;;12609921;28;20064;-36
2024/03/30 14:06:16;;;;;;;17.85;4.65;;;16.10;99.90;;;;;;12614138;28;20159;-36
2024/03/30 14:12:17;;;;;;;18.38;4.40;;;15.90;99.90;;;;;;12611613;28;21929;-36
2024/03/30 14:18:17;;;;;;;14.68;4.22;;;15.90;99.90;;;;;;12607418;28;20056;-36
2024/03/30 14:24:18;;;;;;;20.50;4.53;;;15.80;99.90;;;;;;12613341;28;20090;-36
2024/03/30 14:36:46;;;;;;;32.95;5.78;;;15.80;99.90;;;;;;12540762;28;20153;-36
2024/03/30 14:42:48;;;;;;;23.27;5.82;;;15.70;99.90;;;;;;12544878;28;20049;-36
2024/03/30 14:48:50;;;;;;;27.85;6.03;;;15.60;99.90;;;;;;12507045;22;20058;-78
2024/03/30 14:54:51;;;;;;;19.73;5.72;;;15.50;99.90;;;;;;12432964;28;20050;-78
2024/03/30 15:00:51;;;;;;;26.83;5.82;;;15.50;99.90;;;;;;12432863;28;20081;-78
2024/03/30 15:06:53;;;;;;;31.70;6.05;;;15.50;99.90;;;;;;12432777;28;20119;-81
2024/03/30 15:12:54;;;;;;;25.20;6.32;;;15.40;99.90;;;;;;12492373;28;20050;-80
2024/03/30 15:18:55;;;;;;;30.20;6.85;;;15.40;99.90;;;;;;12484707;28;20054;-80
2024/03/30 15:24:56;;;;;;;31.15;6.97;;;15.30;99.90;;;;;;12480308;28;20069;-80
2024/03/30 15:37:16;;;;;;;20.27;6.03;;;15.20;99.90;;;;;;12465201;28;20056;-78
2024/03/30 15:43:17;;;;;;;28.08;6.55;;;15.10;99.90;;;;;;12467923;28;20133;-79
2024/03/30 15:49:19;;;;;;;30.50;6.00;;;15.10;99.90;;;;;;12475474;28;20050;-78
2024/03/30 15:55:22;;;;;;;27.42;5.40;;;15.10;99.90;;;;;;12464961;28;20042;-78
2024/03/30 16:01:23;;;;;;;31.23;5.43;;;15.10;99.90;;;;;;12452896;28;20088;-78
2024/03/30 16:07:26;;;;;;;33.00;6.75;;;15.00;99.90;;;;;;12431087;28;20579;-79
2024/03/30 16:13:29;;;;;;;33.57;6.97;;;14.90;99.90;;;;;;12436772;28;20505;-77
2024/03/30 16:19:30;;;;;;;24.92;4.97;;;14.90;99.90;;;;;;12453188;28;20061;-80
2024/03/30 16:25:31;;;;;;;36.08;7.05;;;14.90;99.90;;;;;;12460579;28;20058;-81
2024/03/30 16:31:32;;;;;;;32.55;6.65;;;14.70;99.90;;;;;;12460017;28;20050;-80
2024/03/30 16:37:33;;;;;;;33.88;7.00;;;14.70;99.90;;;;;;12479594;28;20095;-81
2024/03/30 16:43:35;;;;;;;42.20;7.53;;;14.60;99.90;;;;;;12452397;28;20062;-80
2024/03/30 16:49:35;;;;;;;42.45;7.03;;;14.50;99.90;;;;;;12466398;28;20038;-80
2024/03/30 16:55:37;;;;;;;46.78;6.63;;;14.50;99.90;;;;;;12456305;28;20098;-80
2024/03/30 17:01:38;;;;;;;42.92;5.97;;;14.50;99.90;;;;;;12482938;28;20408;-80
2024/03/30 17:07:39;;;;;;;39.13;7.30;;;14.40;99.90;;;;;;12473056;28;20029;-81
2024/03/30 17:13:40;;;;;;;36.47;5.85;;;14.30;99.90;;;;;;12496532;28;20165;-81
2024/03/30 17:19:41;;;;;;;38.17;7.65;;;14.40;99.90;;;;;;12472613;28;20072;-80
2024/03/30 17:25:49;;;;;;;44.17;6.57;;;14.50;99.90;;;;;;12490807;28;20054;-81
2024/03/30 17:31:51;;;;;;;32.92;6.65;;;14.50;99.90;;;;;;12455929;28;20050;-78
2024/03/30 17:37:52;;;;;;;50.28;6.80;;;14.40;99.90;;;;;;12451615;28;20490;-81
2024/03/30 17:43:53;;;;;;;39.83;7.50;;;14.30;99.90;;;;;;12462630;28;20341;-79
2024/03/30 17:49:54;;;;;;;49.20;6.65;;;14.10;99.90;;;;;;12449866;28;20062;-81
2024/03/30 17:56:00;;;;;;;48.42;8.25;;;14.10;99.90;;;;;;12423034;28;20516;-80
2024/03/30 18:02:02;;;;;;;33.30;6.35;;;14.10;99.90;;;;;;12422338;28;20112;-81
2024/03/30 18:08:03;;;;;;;36.50;5.50;;;14.00;99.90;;;;;;12435947;28;20054;-81
2024/03/30 18:14:04;;;;;;;44.15;6.32;;;14.10;99.90;;;;;;12439461;28;20046;-81
2024/03/30 18:20:06;;;;;;;61.03;8.52;;;14.00;99.90;;;;;;12442560;28;20058;-79
2024/03/30 18:26:15;;;;;;;44.58;6.85;;;13.90;99.90;;;;;;12438906;28;20049;-81
2024/03/30 18:32:16;;;;;;;38.35;6.22;;;13.70;99.90;;;;;;12437477;28;20042;-80
2024/03/30 18:38:17;;;;;;;38.53;7.18;;;13.60;99.90;;;;;;12428999;28;20400;-82
2024/03/30 18:44:17;;;;;;;40.90;11.82;;;13.70;99.90;;;;;;12436875;28;20069;-82
2024/03/30 18:50:18;;;;;;;41.47;9.23;;;13.60;99.90;;;;;;12417533;28;20053;-82
2024/03/30 18:56:19;;;;;;;44.55;16.63;;;13.50;99.90;;;;;;12424724;28;20453;-81
2024/03/30 19:02:20;;;;;;;45.22;15.48;;;13.30;99.90;;;;;;12419094;28;20533;-81
2024/03/30 19:08:21;;;;;;;39.85;16.08;;;13.20;99.90;;;;;;12439509;28;20140;-81
2024/03/30 19:14:22;;;;;;;32.80;9.40;;;13.10;99.90;;;;;;12438847;28;20084;-81
2024/03/30 19:20:22;;;;;;;31.75;7.10;;;13.10;99.90;;;;;;12436481;28;20124;-81
2024/03/30 19:26:23;;;;;;;27.23;6.50;;;12.90;99.90;;;;;;12447079;28;20140;-83
2024/03/30 19:32:24;;;;;;;29.30;5.85;;;12.70;99.90;;;;;;12431555;28;20109;-81
2024/03/30 19:38:26;;;;;;;20.88;5.55;;;12.60;99.90;;;;;;12416271;28;20453;-82
2024/03/30 19:44:26;;;;;;;30.40;7.38;;;12.40;99.90;;;;;;12435639;28;20053;-80
2024/03/30 19:50:27;;;;;;;24.77;6.90;;;12.40;99.90;;;;;;12434907;28;20399;-80
2024/03/30 19:56:31;;;;;;;20.92;6.63;;;12.30;99.90;;;;;;12425452;28;20220;-80
2024/03/30 20:02:32;;;;;;;23.00;7.97;;;12.40;99.90;;;;;;12435209;28;20572;-81
2024/03/30 20:08:33;;;;;;;31.35;8.15;;;12.60;99.90;;;;;;12440087;28;20077;-80
2024/03/30 20:14:34;;;;;;;20.13;7.30;;;12.50;99.90;;;;;;12431584;28;20053;-80
2024/03/30 20:20:34;;;;;;;19.13;7.03;;;12.40;99.90;;;;;;12444989;28;20065;-81
2024/03/30 20:26:35;;;;;;;22.00;8.32;;;12.30;99.90;;;;;;12439979;28;20053;-81
2024/03/30 20:32:36;;;;;;;21.33;8.38;;;12.20;99.90;;;;;;12433414;28;21650;-81
2024/03/30 20:38:37;;;;;;;28.80;9.30;;;12.10;99.90;;;;;;12430594;28;20068;-81
2024/03/30 20:44:38;;;;;;;33.60;11.48;;;12.00;99.90;;;;;;12454026;28;20054;-80
2024/03/30 20:50:39;;;;;;;24.73;10.93;;;12.00;99.90;;;;;;12460764;28;20085;-81
2024/03/30 20:56:40;;;;;;;26.17;12.30;;;11.90;99.90;;;;;;12454493;28;20061;-80
2024/03/30 21:02:42;;;;;;;27.25;12.93;;;11.90;99.90;;;;;;12484185;28;20053;-82
2024/03/30 21:08:43;;;;;;;26.05;13.55;;;11.80;99.90;;;;;;12483868;28;20046;-81
2024/03/30 21:14:44;;;;;;;32.13;15.80;;;11.60;99.90;;;;;;12490226;28;20045;-81
2024/03/30 21:20:46;;;;;;;36.30;16.10;;;11.50;99.90;;;;;;12467657;28;20045;-80
2024/03/30 21:26:48;;;;;;;24.02;11.82;;;11.50;99.90;;;;;;12455798;28;20046;-80
2024/03/30 21:32:49;;;;;;;25.63;13.65;;;11.30;99.90;;;;;;12453189;28;20050;-80
2024/03/30 21:38:50;;;;;;;22.35;14.10;;;11.10;99.90;;;;;;12442317;28;20073;-80
2024/03/30 21:44:51;;;;;;;25.67;13.45;;;11.10;99.90;;;;;;12450109;28;20061;-81
2024/03/30 21:50:56;;;;;;;25.50;11.40;;;11.10;99.90;;;;;;12435028;28;20046;-81
2024/03/30 21:56:57;;;;;;;17.52;10.82;;;10.90;99.90;;;;;;12447496;28;20054;-81
2024/03/30 22:02:58;;;;;;;20.92;10.30;;;10.80;99.90;;;;;;12449235;28;20053;-81
2024/03/30 22:08:59;;;;;;;19.27;10.25;;;10.90;99.90;;;;;;12451939;28;20073;-80
2024/03/30 22:15:00;;;;;;;18.52;9.55;;;10.80;99.90;;;;;;12440413;28;20064;-80
2024/03/30 22:21:01;;;;;;;18.88;9.95;;;10.60;99.90;;;;;;12454924;28;20064;-80
2024/03/30 22:27:02;;;;;;;19.15;9.88;;;10.40;99.90;;;;;;12453284;28;20486;-79
2024/03/30 22:33:09;;;;;;;16.63;9.63;;;10.20;99.90;;;;;;12441412;28;20092;-80
2024/03/30 22:39:10;;;;;;;16.42;9.32;;;10.30;99.90;;;;;;12447221;28;20136;-80
2024/03/30 22:45:10;;;;;;;18.75;10.77;;;10.50;99.90;;;;;;12440337;28;20078;-81
2024/03/30 22:51:12;;;;;;;14.50;9.10;;;10.60;99.90;;;;;;12437841;28;20101;-80
2024/03/30 22:57:13;;;;;;;14.98;9.55;;;10.50;99.90;;;;;;12425811;28;20061;-80
2024/03/30 23:03:19;;;;;;;20.05;9.88;;;10.40;99.90;;;;;;12444110;28;20390;-80
2024/03/30 23:09:20;;;;;;;15.85;9.80;;;10.30;99.90;;;;;;12441184;28;20049;-80
2024/03/30 23:15:21;;;;;;;13.05;8.63;;;10.30;99.90;;;;;;12446635;28;20057;-81
2024/03/30 23:21:22;;;;;;;19.35;10.50;;;10.40;99.90;;;;;;12488654;28;20083;-78
2024/03/30 23:27:23;;;;;;;20.25;10.52;;;10.40;99.90;;;;;;12470030;28;20054;-79
2024/03/30 23:33:24;;;;;;;17.45;9.07;;;10.20;99.90;;;;;;12485614;28;20054;-81
2024/03/30 23:39:25;;;;;;;22.30;10.23;;;10.10;99.90;;;;;;12471190;28;20061;-78
2024/03/30 23:45:27;;;;;;;21.30;10.75;;;10.00;99.90;;;;;;12469227;28;20045;-79
2024/03/30 23:51:28;;;;;;;17.25;11.32;;;9.90;99.90;;;;;;12482635;28;20062;-81
2024/03/30 23:57:29;;;;;;;17.73;10.82;;;9.80;99.90;;;;;;12463528;28;20053;-79
